Terminal Aerodrome Forecast
Issued by NWS Grand Junction, CO

Home | Current Version | Previous Version | Text Only | Print | Product List | Glossary On
Versions: 1 2 3 4 5 6 7 8 9 10 11 12 13 14 15 16 17
000
FTUS45 KGJT 262258 AAB
TAFGJT
TAF AMD
KGJT 262258Z 2623/2718 23012G22KT P6SM VCTS SCT110CB BKN200
     FM270100 01006KT P6SM VCSH BKN110
     FM270600 07004KT P6SM SCT200=

USA.gov is the U.S. government's official web portal to all federal, state and local government web resources and services.